Time;durP1;ratioP1;P1;durP2;ratioP2;P2;SDS_P1;SDS_P2;PMS_P1;PMS_P2;Temp;Humidity;BMP_temperature;BMP_pressure;BME280_temperature;BME280_humidity;BME280_pressure;Samples;Min_cycle;Max_cycle;Signal;HPM_P1;HPM_P2
2022/12/17 13:06:54;;;;;;;83.13;37.17;;;;;;;-1.38;100.00;102582.50;5041026;28;20045;-79
2022/12/17 13:09:30;;;;;;;80.20;35.95;;;;;;;-1.41;100.00;102582.28;5029851;28;20115;-78
2022/12/17 13:12:01;;;;;;;80.03;37.58;;;;;;;-1.42;100.00;102581.41;5047998;28;20498;-78
2022/12/17 13:14:30;;;;;;;81.25;36.83;;;;;;;-1.43;100.00;102582.16;5012837;28;20076;-79
2022/12/17 13:17:16;;;;;;;82.80;36.22;;;;;;;-1.41;100.00;102577.13;5012310;28;20473;-79
2022/12/17 13:19:56;;;;;;;79.93;37.22;;;;;;;-1.40;100.00;102569.50;5047391;28;20479;-78
2022/12/17 13:22:26;;;;;;;81.47;36.92;;;;;;;-1.37;100.00;102572.28;5052255;28;20056;-78
2022/12/17 13:25:16;;;;;;;81.95;36.88;;;;;;;-1.34;100.00;102586.25;5048484;28;20048;-78
2022/12/17 13:27:45;;;;;;;63.60;29.13;;;;;;;-1.33;100.00;102581.19;5041444;28;20037;-79
2022/12/17 13:30:15;;;;;;;76.85;37.53;;;;;;;-1.32;100.00;102577.84;5008256;28;20049;-78
2022/12/17 13:33:07;;;;;;;78.80;36.25;;;;;;;-1.29;100.00;102579.75;5044843;28;20041;-78
2022/12/17 13:35:53;;;;;;;77.35;36.17;;;;;;;-1.27;100.00;102571.34;5048617;28;20535;-78
2022/12/17 13:38:34;;;;;;;93.25;41.33;;;;;;;-1.22;100.00;102570.03;5054328;28;20104;-78
2022/12/17 13:41:05;;;;;;;184.52;45.15;;;;;;;-1.17;100.00;102575.56;5050614;28;20041;-78
2022/12/17 13:43:45;;;;;;;117.85;41.75;;;;;;;-1.13;100.00;102576.72;5008448;28;20048;-78
2022/12/17 13:46:25;;;;;;;223.82;49.75;;;;;;;-1.10;100.00;102562.31;5048837;28;20036;-77
2022/12/17 13:49:01;;;;;;;90.65;38.97;;;;;;;-1.02;100.00;102556.06;5052650;28;20045;-78
2022/12/17 13:51:33;;;;;;;612.35;80.10;;;;;;;-0.96;100.00;102570.22;5047839;28;20053;-77
2022/12/17 13:54:03;;;;;;;116.40;43.30;;;;;;;-0.92;100.00;102568.03;5024198;28;20675;-79
2022/12/17 13:56:33;;;;;;;87.13;38.03;;;;;;;-0.93;100.00;102567.91;5038733;28;20047;-82
2022/12/17 13:59:04;;;;;;;1485.00;141.60;;;;;;;-0.98;100.00;102573.63;5045592;28;20045;-79
2022/12/17 14:01:49;;;;;;;590.10;76.35;;;;;;;-1.00;100.00;102566.53;5023163;28;20037;-80
2022/12/17 14:04:26;;;;;;;183.57;42.92;;;;;;;-1.00;100.00;102582.06;5050781;28;20100;-78
2022/12/17 14:06:58;;;;;;;107.25;41.20;;;;;;;-1.00;100.00;102576.88;5048348;28;20115;-77
2022/12/17 14:09:34;;;;;;;178.90;50.35;;;;;;;-0.96;100.00;102576.34;5056284;28;20045;-78
2022/12/17 14:12:21;;;;;;;93.20;38.60;;;;;;;-0.95;100.00;102574.66;5032795;28;20075;-78
2022/12/17 14:14:57;;;;;;;92.00;40.65;;;;;;;-1.02;100.00;102586.19;5032404;28;20418;-79
2022/12/17 14:17:33;;;;;;;90.45;38.92;;;;;;;-1.07;100.00;102577.19;4997768;28;20058;-78
2022/12/17 14:20:34;;;;;;;88.28;39.08;;;;;;;-1.14;100.00;102588.72;5036180;28;20067;-80
2022/12/17 14:23:24;;;;;;;84.75;39.30;;;;;;;-1.16;100.00;102581.63;5046154;28;20044;-79
2022/12/17 14:25:53;;;;;;;87.50;38.35;;;;;;;-1.16;100.00;102587.72;5053780;28;20063;-78
2022/12/17 14:28:28;;;;;;;84.47;37.80;;;;;;;-1.18;100.00;102585.00;5029608;28;20046;-79
2022/12/17 14:31:17;;;;;;;77.80;36.42;;;;;;;-1.23;100.00;102588.00;5005296;28;20541;-79
2022/12/17 14:34:07;;;;;;;74.15;35.00;;;;;;;-1.31;100.00;102599.44;5032888;28;20057;-80
2022/12/17 14:36:39;;;;;;;79.43;37.53;;;;;;;-1.39;100.00;102596.25;5031160;28;20041;-80
2022/12/17 14:39:27;;;;;;;86.43;36.72;;;;;;;-1.47;100.00;102603.38;5050184;28;20088;-82
2022/12/17 14:44:50;;;;;;;83.30;37.50;;;;;;;-1.54;100.00;102614.00;5026790;28;20044;-78
2022/12/17 14:47:24;;;;;;;85.05;36.10;;;;;;;-1.59;100.00;102624.00;5001807;28;20041;-77
2022/12/17 14:53:49;;;;;;;86.88;40.15;;;;;;;-1.53;100.00;102608.09;5020506;28;20060;-78
2022/12/17 14:56:22;;;;;;;90.07;38.70;;;;;;;-1.58;100.00;102610.28;5010010;28;20049;-80
2022/12/17 14:58:49;;;;;;;93.63;40.30;;;;;;;-1.63;100.00;102613.28;5030802;28;20057;-78
2022/12/17 15:01:17;;;;;;;99.03;40.25;;;;;;;-1.68;100.00;102612.91;5027077;28;20133;-78
2022/12/17 15:03:45;;;;;;;87.45;38.65;;;;;;;-1.72;100.00;102615.09;5001910;28;20045;-79
2022/12/17 15:06:18;;;;;;;85.40;37.10;;;;;;;-1.77;100.00;102613.06;5006981;28;20053;-79
2022/12/17 15:08:48;;;;;;;80.15;36.42;;;;;;;-1.81;100.00;102599.78;5033611;28;20049;-80
2022/12/17 15:11:19;;;;;;;76.43;35.08;;;;;;;-1.87;100.00;102615.69;5029962;28;20483;-78
2022/12/17 15:13:48;;;;;;;83.47;35.45;;;;;;;-1.89;100.00;102613.72;5034608;28;20056;-78
2022/12/17 15:16:23;;;;;;;83.13;36.70;;;;;;;-1.92;100.00;102613.50;5008426;28;20064;-77
2022/12/17 15:18:50;;;;;;;87.20;38.50;;;;;;;-1.94;100.00;102617.66;4969942;28;20133;-80
2022/12/17 15:21:18;;;;;;;92.43;38.10;;;;;;;-1.96;100.00;102617.50;4991590;28;20060;-79
2022/12/17 15:23:47;;;;;;;86.30;37.42;;;;;;;-1.98;100.00;102619.06;5046268;28;20084;-78
2022/12/17 15:26:14;;;;;;;87.28;35.63;;;;;;;-2.01;100.00;102611.06;5057317;28;20051;-80
2022/12/17 15:28:42;;;;;;;90.10;37.72;;;;;;;-2.01;100.00;102621.38;5041872;28;20418;-80
2022/12/17 15:31:13;;;;;;;87.25;36.58;;;;;;;-2.02;100.00;102624.75;5032393;28;20048;-80
2022/12/17 15:33:43;;;;;;;;;;;;;;;-2.03;100.00;102623.84;5025766;28;20490;-78
2022/12/17 15:36:13;;;;;;;91.07;36.67;;;;;;;-2.04;100.00;102627.22;5009624;28;19963;-85
2022/12/17 15:38:41;;;;;;;92.30;37.35;;;;;;;-2.04;100.00;102632.38;4995350;28;20056;-80
2022/12/17 15:44:01;;;;;;;83.63;35.75;;;;;;;-2.05;100.00;102643.47;5014181;28;20053;-79
2022/12/17 15:46:29;;;;;;;88.85;35.55;;;;;;;-2.07;100.00;102637.28;4995580;28;20053;-80
2022/12/17 15:48:56;;;;;;;87.72;36.08;;;;;;;-2.08;100.00;102639.72;4992355;28;20111;-79
2022/12/17 15:51:27;;;;;;;84.60;36.33;;;;;;;-2.09;100.00;102643.09;5014724;28;20421;-80
2022/12/17 15:53:54;;;;;;;81.03;34.42;;;;;;;-2.11;100.00;102640.41;5022916;28;20052;-80
2022/12/17 15:56:24;;;;;;;84.05;33.70;;;;;;;-2.14;100.00;102640.13;5031666;28;20048;-80
2022/12/17 15:58:51;;;;;;;61.40;25.17;;;;;;;-2.15;100.00;102646.09;5032938;28;20052;-80
2022/12/17 16:01:19;;;;;;;84.93;34.25;;;;;;;-2.17;100.00;102642.47;5041635;28;20077;-79
2022/12/17 16:03:47;;;;;;;86.40;34.25;;;;;;;-2.19;100.00;102637.16;5032640;28;20532;-79
2022/12/17 16:06:14;;;;;;;81.45;34.95;;;;;;;-2.20;100.00;102644.78;4989078;28;20425;-79
2022/12/17 16:08:43;;;;;;;85.15;33.55;;;;;;;-2.23;100.00;102631.59;4983206;28;20540;-79
2022/12/17 16:11:15;;;;;;;78.40;32.20;;;;;;;-2.27;100.00;102648.56;5034664;28;20052;-78
2022/12/17 16:13:42;;;;;;;81.60;34.58;;;;;;;-2.29;100.00;102649.19;5051550;28;20057;-78
2022/12/17 16:16:11;;;;;;;84.65;34.55;;;;;;;-2.30;100.00;102657.72;5012675;28;20045;-79
2022/12/17 16:18:40;;;;;;;86.80;33.17;;;;;;;-2.30;100.00;102660.31;5047644;28;20040;-79
2022/12/17 16:21:08;;;;;;;92.63;33.78;;;;;;;-2.29;100.00;102672.41;4963319;28;20056;-79
2022/12/17 16:23:37;;;;;;;87.35;34.47;;;;;;;-2.30;100.00;102678.38;5026665;28;20101;-79
2022/12/17 16:26:07;;;;;;;86.00;34.97;;;;;;;-2.33;100.00;102673.84;5042156;28;20048;-79
2022/12/17 16:28:35;;;;;;;83.97;32.42;;;;;;;-2.33;100.00;102684.16;5050423;28;20041;-78
2022/12/17 16:31:07;;;;;;;89.97;34.08;;;;;;;-2.35;100.00;102680.56;5043185;28;20049;-79
2022/12/17 16:33:36;;;;;;;;;;;;;;;-2.36;100.00;102676.19;5033149;28;20060;-78
2022/12/17 16:36:05;;;;;;;93.88;34.33;;;;;;;-2.37;100.00;102667.50;5036351;28;19924;-79
2022/12/17 16:38:33;;;;;;;96.32;34.28;;;;;;;-2.38;100.00;102669.97;5025693;28;20045;-79
2022/12/17 16:41:02;;;;;;;95.60;32.92;;;;;;;-2.39;100.00;102676.81;5059932;28;20052;-79
2022/12/17 16:43:32;;;;;;;95.60;33.53;;;;;;;-2.41;100.00;102673.19;5026820;28;20085;-79
2022/12/17 16:46:00;;;;;;;70.85;26.77;;;;;;;-2.40;100.00;102684.41;5040558;28;20044;-78
2022/12/17 16:48:28;;;;;;;97.05;33.88;;;;;;;-2.42;100.00;102673.97;5035819;28;20404;-78
2022/12/17 16:50:55;;;;;;;94.68;33.38;;;;;;;-2.41;100.00;102675.78;5028566;28;20581;-78
2022/12/17 16:53:25;;;;;;;92.28;31.13;;;;;;;-2.40;100.00;102676.66;5043402;28;20075;-78
2022/12/17 16:55:53;;;;;;;88.25;31.05;;;;;;;-2.41;100.00;102678.34;5049833;28;20045;-78
2022/12/17 16:58:20;;;;;;;89.00;32.55;;;;;;;-2.43;100.00;102689.34;5037756;28;20049;-77
2022/12/17 17:00:52;;;;;;;90.50;31.55;;;;;;;-2.47;100.00;102672.69;5038677;28;20080;-78
2022/12/17 17:03:20;;;;;;;92.22;31.25;;;;;;;-2.48;100.00;102683.75;5024651;28;20049;-78
2022/12/17 17:05:48;;;;;;;91.45;32.08;;;;;;;-2.51;100.00;102677.44;5000435;28;20060;-77
2022/12/17 17:08:15;;;;;;;95.72;33.00;;;;;;;-2.52;100.00;102683.38;5034577;28;20041;-77
2022/12/17 17:10:43;;;;;;;96.88;32.38;;;;;;;-2.56;100.00;102674.47;4978541;28;20064;-77
2022/12/17 17:13:11;;;;;;;95.55;30.73;;;;;;;-2.57;100.00;102693.28;5032835;28;20132;-78
2022/12/17 17:15:41;;;;;;;89.63;30.95;;;;;;;-2.60;100.00;102701.69;5033578;28;20049;-77
2022/12/17 17:18:09;;;;;;;91.55;30.45;;;;;;;-2.61;100.00;102693.81;5020551;28;20074;-78
2022/12/17 17:20:37;;;;;;;97.00;31.88;;;;;;;-2.62;100.00;102710.97;5024051;28;20053;-78
2022/12/17 17:23:05;;;;;;;93.47;32.38;;;;;;;-2.63;100.00;102703.09;5010651;28;20542;-77
2022/12/17 17:25:34;;;;;;;100.72;31.90;;;;;;;-2.64;100.00;102707.38;5039327;28;20379;-78
2022/12/17 17:28:22;;;;;;;88.70;30.60;;;;;;;-2.67;100.00;102704.50;5049553;28;20489;-79
2022/12/17 17:30:58;;;;;;;88.00;32.45;;;;;;;-2.67;100.00;102695.88;5034135;28;20044;-78
2022/12/17 17:33:30;;;;;;;83.45;30.13;;;;;;;-2.68;100.00;102689.81;5010183;28;20049;-78
2022/12/17 17:36:05;;;;;;;103.53;31.65;;;;;;;-2.67;100.00;102695.88;5048457;28;20049;-78
2022/12/17 17:38:34;;;;;;;101.30;34.30;;;;;;;-2.65;100.00;102689.16;5013367;28;20049;-78
2022/12/17 17:41:03;;;;;;;96.40;31.63;;;;;;;-2.64;100.00;102694.47;5036210;28;20052;-78
2022/12/17 17:43:31;;;;;;;102.80;31.67;;;;;;;-2.66;100.00;102689.97;5039537;28;20056;-78
2022/12/17 17:46:11;;;;;;;95.40;32.10;;;;;;;-2.71;100.00;102684.38;5042663;28;20049;-78
2022/12/17 17:48:40;;;;;;;95.47;29.60;;;;;;;-2.76;100.00;102685.66;5041067;28;20508;-77
2022/12/17 17:51:17;;;;;;;89.13;31.40;;;;;;;-2.82;100.00;102698.91;5051927;28;20042;-79
2022/12/17 17:53:47;;;;;;;90.68;30.48;;;;;;;-2.84;100.00;102700.47;4994071;28;21829;-78
2022/12/17 17:56:17;;;;;;;97.70;31.93;;;;;;;-2.86;100.00;102702.00;5042305;28;20037;-78
2022/12/17 17:58:57;;;;;;;101.35;31.02;;;;;;;-2.87;100.00;102707.97;5040006;28;20072;-78
2022/12/17 18:01:28;;;;;;;96.93;30.55;;;;;;;-2.89;100.00;102719.81;5053246;28;20036;-77
2022/12/17 18:03:57;;;;;;;98.75;31.52;;;;;;;-2.90;100.00;102711.94;5043004;28;20045;-78
2022/12/17 18:06:26;;;;;;;104.47;31.97;;;;;;;-2.91;100.00;102715.28;5066439;28;20087;-78
2022/12/17 18:08:57;;;;;;;105.32;33.75;;;;;;;-2.92;100.00;102713.50;5001212;28;20072;-77
2022/12/17 18:11:27;;;;;;;102.38;33.38;;;;;;;-2.95;100.00;102714.09;5048689;28;20056;-78
2022/12/17 18:13:57;;;;;;;100.07;31.52;;;;;;;-2.96;100.00;102707.16;5033008;28;20543;-77
2022/12/17 18:16:34;;;;;;;97.00;31.27;;;;;;;-2.95;100.00;102706.38;5049962;28;20053;-77
2022/12/17 18:19:07;;;;;;;97.45;31.50;;;;;;;-2.96;100.00;102712.31;5041590;28;20718;-80
2022/12/17 18:21:35;;;;;;;97.30;33.33;;;;;;;-2.98;100.00;102719.00;5033734;28;20049;-78
2022/12/17 18:24:06;;;;;;;93.88;30.75;;;;;;;-2.98;100.00;102719.00;4998907;28;20049;-79
2022/12/17 18:26:38;;;;;;;88.68;29.95;;;;;;;-3.00;100.00;102731.78;5040984;28;20049;-79
2022/12/17 18:29:15;;;;;;;98.32;32.28;;;;;;;-3.03;100.00;102728.00;5017699;28;20049;-77
2022/12/17 18:31:43;;;;;;;103.40;32.15;;;;;;;-3.04;100.00;102728.81;5037111;28;20045;-77
2022/12/17 18:34:20;;;;;;;97.13;31.70;;;;;;;-3.03;100.00;102728.00;5022103;28;20041;-77
2022/12/17 18:36:49;;;;;;;98.15;32.67;;;;;;;-3.04;100.00;102729.69;5039467;28;20052;-78
2022/12/17 18:39:19;;;;;;;101.38;33.50;;;;;;;-3.04;100.00;102721.06;5022471;28;20044;-77
2022/12/17 18:44:37;;;;;;;101.80;33.15;;;;;;;-3.03;100.00;102715.13;5017281;28;20491;-78
2022/12/17 18:47:06;;;;;;;119.35;36.08;;;;;;;-2.99;100.00;102719.78;5035678;28;20300;-80
2022/12/17 18:49:34;;;;;;;103.63;35.03;;;;;;;-2.99;100.00;102737.81;5017422;28;20049;-78
2022/12/17 18:52:06;;;;;;;112.50;37.58;;;;;;;-3.03;100.00;102734.06;5045707;28;20052;-78
2022/12/17 18:54:40;;;;;;;110.63;36.72;;;;;;;-3.03;100.00;102734.06;5023401;28;20055;-77
2022/12/17 18:57:08;;;;;;;113.20;37.28;;;;;;;-3.04;100.00;102727.13;5030699;28;20589;-78
2022/12/17 18:59:37;;;;;;;104.80;36.22;;;;;;;-3.03;100.00;102739.22;5033711;28;20037;-78
2022/12/17 19:02:10;;;;;;;112.50;36.65;;;;;;;-3.02;100.00;102735.00;5019725;28;20041;-78
2022/12/17 19:04:38;;;;;;;98.13;35.10;;;;;;;-3.03;100.00;102740.91;5059101;28;20056;-78
2022/12/17 19:07:06;;;;;;;112.88;36.08;;;;;;;-3.05;100.00;102740.78;5044744;28;20060;-78
2022/12/17 19:09:34;;;;;;;110.75;37.78;;;;;;;-3.06;100.00;102748.38;4992723;28;20049;-77
2022/12/17 19:12:06;;;;;;;105.35;36.92;;;;;;;-3.07;100.00;102751.72;5021425;28;20057;-77
2022/12/17 19:14:34;;;;;;;105.68;36.47;;;;;;;-3.08;100.00;102752.50;5004895;28;20052;-77
2022/12/17 19:17:03;;;;;;;104.72;36.88;;;;;;;-3.07;100.00;102764.63;5015459;28;20045;-77
2022/12/17 19:19:32;;;;;;;;;;;;;;;-3.08;100.00;102758.56;5040478;28;20034;-77
2022/12/17 19:22:02;;;;;;;105.60;36.80;;;;;;;-3.07;100.00;102765.53;5010917;28;19924;-77
2022/12/17 19:24:31;;;;;;;108.82;38.85;;;;;;;-3.08;100.00;102770.53;4973684;28;20057;-77
2022/12/17 19:26:59;;;;;;;111.15;39.33;;;;;;;-3.10;100.00;102770.44;5040571;28;20045;-77
2022/12/17 19:29:26;;;;;;;100.57;38.42;;;;;;;-3.13;100.00;102765.00;4961957;28;20053;-77
2022/12/17 19:31:53;;;;;;;95.15;37.63;;;;;;;-3.15;100.00;102764.84;5018659;28;20048;-77
2022/12/17 19:34:21;;;;;;;98.80;38.90;;;;;;;-3.17;100.00;102774.13;5026682;28;20049;-77
2022/12/17 19:36:50;;;;;;;97.47;38.83;;;;;;;-3.20;100.00;102758.38;5024823;28;20040;-77
2022/12/17 19:39:18;;;;;;;93.68;39.25;;;;;;;-3.21;100.00;102760.81;4999022;28;20143;-77
2022/12/17 19:41:46;;;;;;;95.97;37.53;;;;;;;-3.23;100.00;102762.34;5025697;28;20049;-77
2022/12/17 19:44:15;;;;;;;101.68;38.65;;;;;;;-3.24;100.00;102766.59;5019320;28;20053;-77
2022/12/17 19:46:43;;;;;;;92.68;38.50;;;;;;;-3.23;100.00;102773.59;5004056;28;20129;-78
2022/12/17 19:49:15;;;;;;;91.90;38.13;;;;;;;-3.24;100.00;102766.59;5018049;28;20045;-77
2022/12/17 19:51:43;;;;;;;105.22;38.08;;;;;;;-3.23;100.00;102768.44;5022786;28;20055;-77
2022/12/17 19:54:13;;;;;;;101.75;40.78;;;;;;;-3.24;100.00;102776.91;5009192;28;20071;-77
2022/12/17 19:56:43;;;;;;;104.15;40.05;;;;;;;-3.24;100.00;102779.50;5010519;28;20045;-77
2022/12/17 19:59:12;;;;;;;95.50;40.00;;;;;;;-3.26;100.00;102780.13;5016260;28;20486;-77
2022/12/17 20:01:43;;;;;;;93.90;39.28;;;;;;;-3.27;100.00;102773.16;5019743;28;20049;-77
2022/12/17 20:04:13;;;;;;;92.72;37.58;;;;;;;-3.28;100.00;102772.25;5037040;28;20059;-77
2022/12/17 20:06:41;;;;;;;98.28;39.33;;;;;;;-3.28;100.00;102776.50;5047246;28;20502;-77
2022/12/17 20:09:09;;;;;;;100.00;41.50;;;;;;;-3.28;100.00;102780.00;5023634;28;20052;-77
2022/12/17 20:11:39;;;;;;;91.57;39.57;;;;;;;-3.28;100.00;102781.66;5012788;28;20052;-77
2022/12/17 20:14:17;;;;;;;99.88;40.10;;;;;;;-3.27;100.00;102779.25;5022583;28;20296;-78
2022/12/17 20:16:52;;;;;;;91.80;37.83;;;;;;;-3.25;100.00;102789.66;5009961;28;20056;-77
2022/12/17 20:19:22;;;;;;;100.13;41.10;;;;;;;-3.27;100.00;102793.78;5025957;28;20605;-77
2022/12/17 20:21:50;;;;;;;97.43;40.20;;;;;;;-3.28;100.00;102792.88;5047569;28;20045;-77
2022/12/17 20:24:18;;;;;;;102.43;41.40;;;;;;;-3.27;100.00;102792.13;4995921;28;20061;-77
2022/12/17 20:26:49;;;;;;;101.78;40.95;;;;;;;-3.27;100.00;102786.97;4994111;28;20049;-77
2022/12/17 20:29:17;;;;;;;107.72;42.00;;;;;;;-3.26;100.00;102785.28;5026843;28;20049;-77
2022/12/17 20:31:44;;;;;;;103.95;40.80;;;;;;;-3.25;100.00;102788.00;5030832;28;20049;-77
2022/12/17 20:34:18;;;;;;;113.05;42.80;;;;;;;-3.23;100.00;102782.97;5019742;28;20044;-77
2022/12/17 20:36:46;;;;;;;105.68;43.25;;;;;;;-3.21;100.00;102792.66;5046783;28;20051;-77
2022/12/17 20:39:14;;;;;;;111.78;43.45;;;;;;;-3.21;100.00;102782.34;5016337;28;20064;-77
2022/12/17 20:41:43;;;;;;;109.32;43.17;;;;;;;-3.21;100.00;102786.63;5014757;28;20045;-77
2022/12/17 20:44:13;;;;;;;107.13;43.17;;;;;;;-3.21;100.00;102792.66;5026892;28;20469;-77
2022/12/17 20:46:41;;;;;;;106.43;43.35;;;;;;;-3.21;100.00;102802.97;5023780;28;20048;-77
2022/12/17 20:49:11;;;;;;;100.40;41.25;;;;;;;-3.21;100.00;102797.81;5004842;28;20041;-77
2022/12/17 20:51:39;;;;;;;97.32;41.70;;;;;;;-3.21;100.00;102786.63;5043546;28;20529;-77
2022/12/17 20:54:08;;;;;;;95.70;39.30;;;;;;;-3.24;100.00;102789.81;5023151;28;20049;-76
2022/12/17 20:56:38;;;;;;;101.55;42.22;;;;;;;-3.27;100.00;102799.88;5044944;28;20175;-77
2022/12/17 20:59:07;;;;;;;94.95;39.20;;;;;;;-3.30;100.00;102802.16;5010821;28;21846;-77
2022/12/17 21:01:35;;;;;;;104.15;43.00;;;;;;;-3.32;100.00;102803.69;5035528;28;20044;-77
2022/12/17 21:04:07;;;;;;;105.07;42.72;;;;;;;-3.34;100.00;102793.22;5031659;28;20120;-77
2022/12/17 21:06:45;;;;;;;107.30;43.22;;;;;;;-3.35;100.00;102786.25;5036450;28;20057;-77
2022/12/17 21:09:14;;;;;;;120.07;43.97;;;;;;;-3.37;100.00;102798.09;5043009;28;20049;-77
2022/12/17 21:11:42;;;;;;;117.00;45.58;;;;;;;-3.38;100.00;102787.69;5025506;28;20053;-77
2022/12/17 21:14:13;;;;;;;117.85;44.78;;;;;;;-3.37;100.00;102797.19;4976135;28;20053;-77
2022/12/17 21:16:41;;;;;;;130.18;45.10;;;;;;;-3.38;100.00;102801.47;5046873;28;20782;-77
2022/12/17 21:19:12;;;;;;;121.63;46.35;;;;;;;-3.38;100.00;102797.97;5008553;28;20041;-77
2022/12/17 21:21:40;;;;;;;;;;;;;;;-3.40;100.00;102802.09;5045438;28;20052;-78
2022/12/17 21:24:08;;;;;;;120.45;44.17;;;;;;;-3.39;100.00;102803.91;5045189;28;19921;-77
2022/12/17 21:26:39;;;;;;;115.50;42.58;;;;;;;-3.42;100.00;102803.59;5039574;28;20540;-77
2022/12/17 21:29:08;;;;;;;118.95;43.88;;;;;;;-3.45;100.00;102801.66;5008065;28;20053;-77
2022/12/17 21:31:39;;;;;;;118.07;45.38;;;;;;;-3.46;100.00;102815.34;5044232;28;20468;-77
2022/12/17 21:34:10;;;;;;;;;;;;;;;-3.47;100.00;102815.19;5059288;23;20522;-77
2022/12/17 21:36:37;;;;;;;109.32;40.42;;;;;;;-3.48;100.00;102819.41;5004106;28;19929;-77
2022/12/17 21:39:08;;;;;;;105.05;40.22;;;;;;;-3.48;100.00;102834.88;4976059;28;20053;-76
2022/12/17 21:41:39;;;;;;;118.07;43.88;;;;;;;-3.49;100.00;102840.81;4985600;28;20038;-77
2022/12/17 21:44:15;;;;;;;130.85;43.97;;;;;;;-3.50;100.00;102854.47;4986244;28;20082;-77
2022/12/17 21:46:42;;;;;;;127.85;47.90;;;;;;;-3.54;100.00;102848.09;4949922;28;20048;-77
2022/12/17 21:49:16;;;;;;;122.95;45.58;;;;;;;-3.54;100.00;102842.94;5004433;28;20060;-77
2022/12/17 21:51:44;;;;;;;122.28;44.85;;;;;;;-3.55;100.00;102851.47;5001796;28;20053;-77
2022/12/17 21:54:11;;;;;;;118.72;43.70;;;;;;;-3.50;100.00;102863.88;5002421;28;20041;-77
2022/12/17 21:56:46;;;;;;;118.63;42.78;;;;;;;-3.50;100.00;102856.13;5001233;28;20464;-77
2022/12/17 21:59:14;;;;;;;114.22;41.55;;;;;;;-3.47;100.00;102846.13;4984784;28;20065;-77
2022/12/17 22:01:42;;;;;;;117.25;43.95;;;;;;;-3.46;100.00;102847.91;4946394;28;20046;-77
2022/12/17 22:04:11;;;;;;;105.32;41.42;;;;;;;-3.47;100.00;102854.75;4986444;28;20164;-77
2022/12/17 22:06:39;;;;;;;107.47;43.03;;;;;;;-3.47;100.00;102854.75;4981730;28;20049;-77
2022/12/17 22:09:15;;;;;;;105.93;40.78;;;;;;;-3.48;100.00;102852.03;4983758;28;20423;-77
2022/12/17 22:11:47;;;;;;;115.93;43.65;;;;;;;-3.49;100.00;102860.53;4993302;28;20042;-77
2022/12/17 22:14:15;;;;;;;119.40;42.47;;;;;;;-3.50;100.00;102858.72;4986400;28;20046;-77
2022/12/17 22:16:47;;;;;;;116.63;42.63;;;;;;;-3.53;100.00;102860.25;4968201;28;20050;-77
2022/12/17 22:19:19;;;;;;;108.78;41.83;;;;;;;-3.54;100.00;102863.56;5008347;28;20054;-77
2022/12/17 22:21:50;;;;;;;122.05;44.20;;;;;;;-3.53;100.00;102867.09;4985385;28;20063;-77
2022/12/17 22:24:24;;;;;;;112.43;42.85;;;;;;;-3.52;100.00;102863.72;4976399;28;20049;-77
2022/12/17 22:26:58;;;;;;;110.97;43.53;;;;;;;-3.50;100.00;102856.13;5004402;28;20057;-77
2022/12/17 22:34:59;;;;;;;113.95;42.70;;;;;;;-3.50;100.00;102864.75;4936948;28;20086;-78
2022/12/17 22:37:47;;;;;;;120.72;44.10;;;;;;;-3.48;100.00;102872.66;4941838;28;20043;-77
2022/12/17 22:40:36;;;;;;;114.32;44.40;;;;;;;-3.48;100.00;102872.66;4951839;28;20474;-77
2022/12/17 22:43:29;;;;;;;124.85;42.33;;;;;;;-3.50;100.00;102869.91;4950588;28;20054;-77
2022/12/17 22:46:18;;;;;;;122.78;42.10;;;;;;;-3.54;100.00;102876.47;4900309;28;20822;-77
2022/12/17 22:48:46;;;;;;;123.60;44.08;;;;;;;-3.57;100.00;102872.72;4943833;28;20051;-79
2022/12/17 22:51:13;;;;;;;123.25;43.92;;;;;;;-3.58;100.00;102870.88;4947808;28;20476;-77
2022/12/17 22:53:51;;;;;;;128.27;46.00;;;;;;;-3.58;100.00;102865.75;4937655;28;20058;-77
2022/12/17 22:56:19;;;;;;;119.07;42.80;;;;;;;-3.58;100.00;102864.06;4961096;28;20472;-76
2022/12/17 22:59:08;;;;;;;121.35;42.65;;;;;;;-3.59;100.00;102869.06;4963064;28;20529;-77
2022/12/17 23:01:38;;;;;;;119.68;42.88;;;;;;;-3.60;100.00;102872.44;4921231;28;20058;-76
2022/12/17 23:04:07;;;;;;;104.45;39.88;;;;;;;-3.63;100.00;102877.28;4933463;28;20047;-77
2022/12/17 23:06:37;;;;;;;103.75;39.45;;;;;;;-3.66;100.00;102867.59;4943559;28;20043;-77
2022/12/17 23:09:05;;;;;;;110.65;40.35;;;;;;;-3.70;100.00;102865.50;4939317;28;20067;-77
2022/12/17 23:11:33;;;;;;;104.63;39.15;;;;;;;-3.72;100.00;102854.16;4927446;28;20050;-77
2022/12/17 23:14:00;;;;;;;107.35;40.97;;;;;;;-3.74;100.00;102863.41;4961636;28;20059;-77
2022/12/17 23:16:28;;;;;;;116.65;42.10;;;;;;;-3.75;100.00;102859.00;4928059;28;20059;-77
2022/12/17 23:18:55;;;;;;;104.47;39.50;;;;;;;-3.77;100.00;102850.25;4935204;28;20057;-77
2022/12/17 23:21:24;;;;;;;120.10;40.92;;;;;;;-3.77;100.00;102852.81;4943899;28;20425;-77
2022/12/17 23:23:53;;;;;;;105.28;40.58;;;;;;;-3.78;100.00;102856.13;4966116;28;20055;-77
2022/12/17 23:26:23;;;;;;;109.65;40.20;;;;;;;-3.75;100.00;102853.88;4950742;28;20512;-77
2022/12/17 23:29:00;;;;;;;131.45;45.30;;;;;;;-3.76;100.00;102847.81;4940580;28;20052;-77
2022/12/17 23:31:32;;;;;;;116.57;41.70;;;;;;;-3.76;100.00;102854.66;4965358;28;20481;-77
2022/12/17 23:34:00;;;;;;;134.90;42.33;;;;;;;-3.76;100.00;102852.06;4894080;28;20053;-77
2022/12/17 23:36:27;;;;;;;111.35;40.47;;;;;;;-3.77;100.00;102853.72;4984403;28;20057;-77
2022/12/17 23:38:56;;;;;;;116.43;42.95;;;;;;;-3.75;100.00;102859.00;4965281;28;20539;-77
2022/12/17 23:41:27;;;;;;;120.68;39.97;;;;;;;-3.79;100.00;102854.34;4976365;28;20050;-76
2022/12/17 23:43:55;;;;;;;110.28;38.45;;;;;;;-3.80;100.00;102845.72;4992320;28;20042;-75
2022/12/17 23:46:24;;;;;;;120.55;40.83;;;;;;;-3.79;100.00;102851.78;4984317;28;20058;-76
2022/12/17 23:48:52;;;;;;;121.53;41.90;;;;;;;-3.80;100.00;102852.53;4936707;28;20053;-76
2022/12/17 23:51:21;;;;;;;122.25;42.28;;;;;;;-3.78;100.00;102851.00;4966651;28;20492;-76
2022/12/17 23:53:49;;;;;;;138.13;44.15;;;;;;;-3.75;100.00;102856.44;4964030;28;20051;-77
2022/12/17 23:56:22;;;;;;;122.68;43.03;;;;;;;-3.75;100.00;102851.28;4936782;28;20047;-77
2022/12/17 23:58:58;;;;;;;126.07;43.20;;;;;;;-3.75;100.00;102861.59;4962537;28;20054;-76
